This is the latest recevied weather packets stored in our database for station/object N3WMC. If no packets are shown the sender has not sent any weather packets the latest 10 day(s).
| Time | Temp. | Humidity | Pressure | Rain* | Wind** | Luminosity | Snow |
|---|---|---|---|---|---|---|---|
| 1787511692 | 23.89° C | 54% | 1013.5 hPa | 0 mm | - | 535 W/m² | - |
| 1787511390 | 24.44° C | 53% | 1013.6 hPa | 0 mm | - | 535 W/m² | - |
| 1787511085 | 23.89° C | 53% | 1013.7 hPa | 0 mm | - | 558 W/m² | - |
| 1787510779 | 23.89° C | 53% | 1013.4 hPa | 0 mm | - | 566 W/m² | - |
| 1787510474 | 23.33° C | 53% | 1013.8 hPa | 0 mm | - | 302 W/m² | - |
| 1787510170 | 23.33° C | 55% | 1013.6 hPa | 0 mm | - | 659 W/m² | - |
| 1787509867 | 22.78° C | 57% | 1013.8 hPa | 0 mm | - | 218 W/m² | - |
| 1787509561 | 23.89° C | 55% | 1013.8 hPa | 0 mm | - | 173 W/m² | - |
| 1787509258 | 22.78° C | 57% | 1013.7 hPa | 0 mm | - | 517 W/m² | - |
| 1787508952 | 22.78° C | 57% | 1014 hPa | 0 mm | - | 219 W/m² | - |
| 1787508649 | 23.89° C | 57% | 1013.9 hPa | 0 mm | - | 192 W/m² | - |
| 1787508348 | 23.89° C | 55% | 1013.9 hPa | 0 mm | - | 653 W/m² | - |
| 1787508044 | 23.89° C | 57% | 1013.9 hPa | 0 mm | - | 612 W/m² | - |
| 1787507741 | 23.33° C | 57% | 1013.9 hPa | 0 mm | - | 611 W/m² | - |
| 1787507437 | 23.33° C | 58% | 1014.1 hPa | 0 mm | - | 615 W/m² | - |
| 1787507132 | 22.78° C | 58% | 1014.3 hPa | 0 mm | - | 732 W/m² | - |
| 1787506827 | 23.89° C | 56% | 1014.2 hPa | 0 mm | - | 175 W/m² | - |
| 1787506524 | 23.89° C | 56% | 1014.1 hPa | 0 mm | - | 665 W/m² | - |
| 1787506220 | 22.78° C | 59% | 1014.1 hPa | 0 mm | - | 638 W/m² | - |
| 1787505920 | 22.78° C | 58% | 1014.2 hPa | 0 mm | - | 182 W/m² | - |
| 1787505615 | 22.78° C | 59% | 1014 hPa | 0 mm | - | 226 W/m² | - |
| 1787505310 | 22.78° C | 60% | 1014.2 hPa | 0 mm | - | 664 W/m² | - |
| 1787505004 | 22.22° C | 61% | 1014 hPa | 0 mm | - | 681 W/m² | - |
| 1787504700 | 22.78° C | 60% | 1014.3 hPa | 0 mm | - | 364 W/m² | - |
| 1787504396 | 23.33° C | 61% | 1014.1 hPa | 0 mm | - | 661 W/m² | - |
* Rain latest hour (hover to see other rain measurements)
** Current wind speed in m/s (hover to see current wind gust speed)